Time;durP1;ratioP1;P1;durP2;ratioP2;P2;SDS_P1;SDS_P2;PMS_P1;PMS_P2;Temp;Humidity;BMP_temperature;BMP_pressure;BME280_temperature;BME280_humidity;BME280_pressure;Samples;Min_cycle;Max_cycle;Signal;HPM_P1;HPM_P2
2021/08/20 00:00:23;;;;;;;8.55;4.60;;;;;;;17.64;70.45;100241.41;5116729;28;20047;-72
2021/08/20 00:02:52;;;;;;;9.23;4.28;;;;;;;17.59;71.44;100240.13;5116628;28;20050;-69
2021/08/20 00:05:20;;;;;;;8.15;4.45;;;;;;;17.73;71.25;100243.31;5116404;28;20092;-76
2021/08/20 00:07:49;;;;;;;8.27;4.65;;;;;;;17.75;70.84;100240.47;5116012;28;20051;-71
2021/08/20 00:10:17;;;;;;;9.38;4.40;;;;;;;17.66;71.24;100236.75;5116580;28;20126;-72
2021/08/20 00:12:47;;;;;;;7.80;4.30;;;;;;;17.57;71.87;100236.72;5116170;28;20043;-72
2021/08/20 00:15:15;;;;;;;8.30;4.38;;;;;;;17.58;71.77;100244.66;5116322;28;20126;-71
2021/08/20 00:17:43;;;;;;;8.27;4.00;;;;;;;17.55;72.19;100244.94;5116247;28;20035;-75
2021/08/20 00:20:12;;;;;;;8.05;4.13;;;;;;;17.49;72.49;100234.69;5116216;28;20047;-71
2021/08/20 00:22:41;;;;;;;8.00;4.30;;;;;;;17.58;72.28;100250.06;5116532;28;20039;-71
2021/08/20 00:25:10;;;;;;;8.23;4.25;;;;;;;17.49;73.17;100244.63;5116234;28;20123;-71
2021/08/20 00:27:38;;;;;;;9.23;4.60;;;;;;;17.46;73.12;100241.19;5116072;28;20047;-71
2021/08/20 00:30:10;;;;;;;10.70;4.63;;;;;;;17.49;73.12;100245.50;5115682;28;20044;-71
2021/08/20 00:32:40;;;;;;;7.53;4.13;;;;;;;17.35;74.84;100241.31;5115879;28;20047;-71
2021/08/20 00:35:09;;;;;;;9.98;4.60;;;;;;;17.30;75.16;100245.41;5115779;28;20040;-71
2021/08/20 00:37:37;;;;;;;7.65;4.45;;;;;;;17.47;74.96;100252.88;5115859;28;20043;-71
2021/08/20 00:40:07;;;;;;;7.63;4.22;;;;;;;17.61;73.37;100249.78;5115630;28;20081;-71
2021/08/20 00:42:35;;;;;;;8.20;4.10;;;;;;;17.58;73.33;100255.47;5115965;28;20477;-71
2021/08/20 00:45:05;;;;;;;8.35;4.18;;;;;;;17.47;74.29;100247.47;5115333;28;20120;-72
2021/08/20 00:47:34;;;;;;;9.05;3.95;;;;;;;17.64;73.59;100249.50;5116056;28;20040;-72
2021/08/20 00:50:04;;;;;;;7.72;4.10;;;;;;;17.54;74.03;100255.84;5115192;28;20481;-72
2021/08/20 00:52:34;;;;;;;9.25;4.80;;;;;;;17.31;75.49;100252.50;5115853;28;20043;-72
2021/08/20 00:55:05;;;;;;;9.80;4.20;;;;;;;17.29;75.88;100260.75;5115236;28;20059;-72
2021/08/20 00:57:33;;;;;;;9.73;4.82;;;;;;;17.27;76.23;100251.06;5115492;28;20108;-72
2021/08/20 01:00:01;;;;;;;10.52;4.57;;;;;;;17.42;75.14;100255.09;5115359;28;20047;-72
2021/08/20 01:02:30;;;;;;;9.68;4.25;;;;;;;17.47;74.92;100244.78;5115503;28;20093;-72
2021/08/20 01:05:00;;;;;;;7.75;4.53;;;;;;;17.69;74.03;100247.28;5114917;28;20047;-73
2021/08/20 01:07:28;;;;;;;9.32;4.38;;;;;;;17.64;73.98;100246.81;5114708;28;20044;-72
2021/08/20 01:09:56;;;;;;;9.52;4.93;;;;;;;17.58;74.34;100244.66;5114985;28;20043;-71
2021/08/20 01:12:25;;;;;;;12.07;4.55;;;;;;;17.63;73.91;100245.09;5115362;28;20070;-72
2021/08/20 01:14:53;;;;;;;8.18;4.10;;;;;;;17.49;74.76;100245.50;5115214;28;20040;-72
2021/08/20 01:17:21;;;;;;;7.53;4.53;;;;;;;17.57;74.47;100248.38;5115531;28;20070;-72
2021/08/20 01:19:50;;;;;;;9.15;4.78;;;;;;;17.61;74.56;100244.38;5115323;28;20042;-70
2021/08/20 01:22:19;;;;;;;7.75;4.32;;;;;;;17.53;74.71;100238.81;5115014;28;20112;-70
2021/08/20 01:24:48;;;;;;;10.07;4.88;;;;;;;17.37;75.46;100238.47;5114572;28;20157;-72
2021/08/20 01:27:20;;;;;;;10.23;4.60;;;;;;;17.66;74.24;100236.75;5115091;28;20092;-70
2021/08/20 01:29:49;;;;;;;7.72;4.43;;;;;;;17.48;75.61;100238.41;5114667;28;20045;-70
2021/08/20 01:32:17;;;;;;;7.68;4.20;;;;;;;17.33;76.17;100239.75;5114767;28;20040;-70
2021/08/20 01:34:45;;;;;;;8.38;4.40;;;;;;;17.37;75.84;100244.75;5114832;28;20104;-70
2021/08/20 01:37:13;;;;;;;12.65;4.78;;;;;;;17.33;76.77;100234.34;5114684;28;20067;-70
2021/08/20 01:39:44;;;;;;;8.32;4.53;;;;;;;17.31;77.16;100236.34;5114435;28;20142;-70
2021/08/20 01:42:12;;;;;;;8.68;4.65;;;;;;;17.33;76.98;100234.34;5114620;28;20127;-70
2021/08/20 01:44:42;;;;;;;12.82;4.82;;;;;;;17.48;75.69;100237.53;5114858;28;20036;-70
2021/08/20 01:47:11;;;;;;;11.82;4.72;;;;;;;17.57;74.74;100234.88;5114181;28;20051;-70
2021/08/20 01:49:40;;;;;;;9.90;4.20;;;;;;;17.62;74.92;100229.91;5114455;28;20040;-70
2021/08/20 01:52:10;;;;;;;7.65;4.00;;;;;;;17.63;74.69;100231.63;5114280;28;20154;-70
2021/08/20 01:54:38;;;;;;;7.80;4.30;;;;;;;17.54;75.52;100232.44;5114420;28;20047;-70
2021/08/20 01:57:07;;;;;;;9.02;4.38;;;;;;;17.63;75.21;100225.38;5114192;28;20391;-70
2021/08/20 01:59:36;;;;;;;10.30;4.80;;;;;;;17.62;74.96;100229.91;5114483;28;20047;-70
2021/08/20 02:02:06;;;;;;;7.25;4.35;;;;;;;17.58;74.93;100228.50;5114135;28;20393;-73
2021/08/20 02:04:34;;;;;;;7.32;4.63;;;;;;;17.50;75.23;100225.63;5114781;28;20039;-73
2021/08/20 02:07:04;;;;;;;9.52;4.80;;;;;;;17.46;75.74;100219.63;5113907;28;20047;-73
2021/08/20 02:09:32;;;;;;;10.88;4.72;;;;;;;17.59;74.95;100221.25;5114256;28;20039;-74
2021/08/20 02:12:00;;;;;;;8.05;4.32;;;;;;;17.67;74.07;100227.66;5113832;28;20048;-72
2021/08/20 02:14:29;;;;;;;8.40;4.57;;;;;;;17.76;73.28;100225.13;5113928;28;20484;-72
2021/08/20 02:16:57;;;;;;;8.82;4.85;;;;;;;17.49;74.79;100223.91;5113648;28;20051;-73
2021/08/20 02:19:26;;;;;;;9.73;4.60;;;;;;;17.37;75.13;100225.88;5113997;28;20047;-70
2021/08/20 02:21:55;;;;;;;15.82;4.90;;;;;;;17.36;75.68;100217.91;5113872;28;20051;-71
2021/08/20 02:24:23;;;;;;;9.15;4.43;;;;;;;17.45;75.09;100222.47;5113997;28;20092;-70
2021/08/20 02:26:51;;;;;;;9.32;5.00;;;;;;;17.58;74.34;100223.09;5113617;28;20097;-74
2021/08/20 02:29:20;;;;;;;8.02;4.70;;;;;;;17.60;73.88;100214.88;5113936;28;20135;-72
2021/08/20 02:31:48;;;;;;;8.50;4.68;;;;;;;17.68;73.77;100213.19;5113632;28;20055;-71
2021/08/20 02:34:16;;;;;;;9.15;4.32;;;;;;;17.75;73.27;100213.50;5114002;28;20399;-71
2021/08/20 02:36:46;;;;;;;9.00;4.75;;;;;;;17.64;73.64;100211.75;5113687;28;20062;-73
2021/08/20 02:39:14;;;;;;;8.55;4.82;;;;;;;17.51;74.20;100211.16;5113400;28;20092;-73
2021/08/20 02:41:42;;;;;;;8.68;4.85;;;;;;;17.51;73.90;100211.16;5113885;28;20063;-74
2021/08/20 02:44:10;;;;;;;8.35;4.47;;;;;;;17.65;73.60;100216.13;5113414;28;20044;-73
2021/08/20 02:46:39;;;;;;;10.60;4.80;;;;;;;17.47;74.75;100212.44;5113598;28;20542;-74
2021/08/20 02:49:07;;;;;;;11.45;5.03;;;;;;;17.42;75.48;100218.22;5113375;28;20043;-74
2021/08/20 02:51:38;;;;;;;8.15;4.65;;;;;;;17.47;74.99;100215.13;5113748;28;20051;-74
2021/08/20 02:54:08;;;;;;;7.88;4.63;;;;;;;17.53;75.02;100219.94;5113077;28;20047;-73
2021/08/20 02:56:36;;;;;;;8.48;4.72;;;;;;;17.66;73.87;100215.16;5113681;28;20044;-73
2021/08/20 02:59:05;;;;;;;7.82;4.75;;;;;;;17.51;74.93;100216.53;5113264;28;20053;-73
2021/08/20 03:01:33;;;;;;;8.80;4.72;;;;;;;17.51;75.18;100218.38;5113576;28;20036;-73
2021/08/20 03:04:02;;;;;;;6.80;4.20;;;;;;;17.68;73.83;100223.13;5113114;28;20071;-71
2021/08/20 03:06:32;;;;;;;9.32;4.35;;;;;;;17.58;74.68;100220.41;5113289;28;20039;-71
2021/08/20 03:09:00;;;;;;;7.65;4.40;;;;;;;17.48;75.44;100222.22;5113022;28;20039;-71
2021/08/20 03:11:30;;;;;;;6.80;4.28;;;;;;;17.51;75.72;100230.03;5113357;28;20047;-72
2021/08/20 03:13:58;;;;;;;8.52;4.95;;;;;;;17.82;74.14;100219.19;5112860;28;20040;-72
2021/08/20 03:16:27;;;;;;;8.10;4.70;;;;;;;17.63;75.31;100218.13;5113365;28;20043;-73
2021/08/20 03:18:55;;;;;;;9.00;4.57;;;;;;;17.51;76.26;100221.09;5112818;28;20093;-74
2021/08/20 03:21:24;;;;;;;8.73;4.53;;;;;;;17.57;75.87;100224.09;5113219;28;20039;-74
2021/08/20 03:23:52;;;;;;;7.65;4.40;;;;;;;17.90;74.33;100227.44;5113446;28;20438;-74
2021/08/20 03:26:21;;;;;;;7.15;3.90;;;;;;;17.71;75.05;100229.13;5112984;28;20036;-71
2021/08/20 03:28:51;;;;;;;7.28;4.00;;;;;;;17.70;75.18;100227.41;5113204;28;20040;-70
2021/08/20 03:31:20;;;;;;;8.52;4.30;;;;;;;17.62;75.48;100224.50;5114898;28;20050;-70
2021/08/20 03:33:48;;;;;;;7.82;4.47;;;;;;;17.67;75.44;100224.13;5117036;28;20516;-71
2021/08/20 03:36:19;;;;;;;7.20;4.38;;;;;;;17.67;75.78;100218.72;5116919;28;20040;-70
2021/08/20 03:38:47;;;;;;;7.55;4.20;;;;;;;17.70;75.43;100221.16;5117182;28;20054;-70
2021/08/20 03:41:15;;;;;;;7.70;4.55;;;;;;;17.58;75.91;100223.09;5116821;28;20066;-70
2021/08/20 03:43:43;;;;;;;6.85;4.00;;;;;;;17.64;75.37;100230.63;5117123;28;20040;-75
2021/08/20 03:46:13;;;;;;;8.30;4.30;;;;;;;17.65;75.68;100224.22;5116568;28;20043;-75
2021/08/20 03:48:44;;;;;;;10.45;4.30;;;;;;;17.57;76.42;100228.63;5116972;28;20472;-74
2021/08/20 03:51:15;;;;;;;6.30;3.95;;;;;;;17.65;76.10;100228.78;5116738;28;20044;-74
2021/08/20 03:53:43;;;;;;;7.63;4.25;;;;;;;17.69;76.02;100239.19;5116856;28;20055;-73
2021/08/20 03:56:11;;;;;;;8.07;4.22;;;;;;;17.63;76.42;100237.00;5116520;28;20051;-72
2021/08/20 03:58:39;;;;;;;9.68;4.90;;;;;;;17.57;76.75;100239.41;5116689;28;20396;-73
2021/08/20 04:01:07;;;;;;;7.55;4.03;;;;;;;17.72;75.93;100236.22;5116554;28;20051;-72
2021/08/20 04:03:37;;;;;;;10.52;4.80;;;;;;;17.63;76.28;100237.00;5116768;28;20050;-72
2021/08/20 04:06:09;;;;;;;7.53;4.65;;;;;;;17.50;76.63;100244.50;5116478;28;20464;-72
2021/08/20 04:08:40;;;;;;;7.15;4.20;;;;;;;17.60;76.31;100249.91;5116891;28;20044;-72
2021/08/20 04:11:10;;;;;;;6.78;4.25;;;;;;;17.53;76.67;100255.00;5116319;28;20075;-72
2021/08/20 04:13:39;;;;;;;5.97;3.85;;;;;;;17.58;76.89;100250.06;5116445;28;20043;-72
2021/08/20 04:16:07;;;;;;;8.52;4.75;;;;;;;17.66;75.96;100247.53;5116358;28;20192;-73
2021/08/20 04:18:40;;;;;;;7.13;4.18;;;;;;;17.71;75.60;100256.09;5116547;28;20035;-73
2021/08/20 04:21:10;;;;;;;8.57;4.30;;;;;;;17.59;76.03;100246.38;5116046;28;20067;-73
2021/08/20 04:23:39;;;;;;;9.93;4.18;;;;;;;17.49;77.18;100240.09;5116168;28;20040;-73
2021/08/20 04:26:07;;;;;;;10.88;4.53;;;;;;;17.68;75.77;100250.09;5115785;28;20040;-72
2021/08/20 04:28:35;;;;;;;8.95;4.30;;;;;;;17.77;75.22;100238.50;5097611;28;20040;-72
2021/08/20 04:31:03;;;;;;;6.82;4.30;;;;;;;17.83;75.47;100242.47;5115720;28;20506;-72
2021/08/20 04:33:31;;;;;;;9.25;4.22;;;;;;;17.93;74.68;100246.03;5116321;28;20085;-72
2021/08/20 04:36:01;;;;;;;6.63;4.50;;;;;;;17.81;74.95;100245.31;5115693;28;20051;-74
2021/08/20 04:38:29;;;;;;;6.93;4.05;;;;;;;17.83;74.88;100245.19;5115639;28;20042;-73
2021/08/20 04:40:57;;;;;;;7.78;4.47;;;;;;;17.71;75.38;100250.69;5115870;28;20453;-73
2021/08/20 04:43:26;;;;;;;7.55;4.55;;;;;;;17.81;75.29;100249.88;5114722;28;20048;-73
2021/08/20 04:45:54;;;;;;;7.25;4.40;;;;;;;17.93;74.79;100248.75;5115736;28;20040;-73
2021/08/20 04:48:22;;;;;;;8.27;4.10;;;;;;;17.71;76.19;100244.44;5115444;28;20547;-73
2021/08/20 04:50:52;;;;;;;9.25;4.68;;;;;;;17.74;76.22;100247.72;5115547;28;20508;-73
2021/08/20 04:53:22;;;;;;;7.68;4.32;;;;;;;17.79;76.11;100252.72;5115658;28;20075;-75
2021/08/20 04:55:50;;;;;;;6.70;4.18;;;;;;;17.90;75.84;100249.03;5115775;28;20048;-74
2021/08/20 04:58:18;;;;;;;7.43;4.47;;;;;;;17.87;76.14;100252.88;5115420;28;20044;-73
2021/08/20 05:00:48;;;;;;;9.55;4.80;;;;;;;17.86;76.63;100253.00;5115694;28;20071;-73
2021/08/20 05:03:17;;;;;;;8.82;4.65;;;;;;;17.95;75.60;100253.03;5114981;28;20051;-73
2021/08/20 05:05:46;;;;;;;7.95;4.45;;;;;;;17.91;76.10;100248.88;5115439;28;20058;-73
2021/08/20 05:08:15;;;;;;;7.32;4.35;;;;;;;17.94;75.76;100258.53;5115074;28;20075;-73
2021/08/20 05:10:45;;;;;;;10.77;4.72;;;;;;;17.99;76.03;100256.28;5115528;28;20134;-73
2021/08/20 05:13:15;;;;;;;8.52;4.20;;;;;;;18.16;75.18;100261.00;5114993;28;20386;-73
2021/08/20 05:15:43;;;;;;;5.53;3.55;;;;;;;18.24;74.97;100257.63;5115214;28;20044;-74
2021/08/20 05:18:12;;;;;;;6.75;4.10;;;;;;;18.33;74.71;100264.84;5115113;28;20067;-74
2021/08/20 05:20:40;;;;;;;6.72;4.30;;;;;;;18.39;74.12;100266.97;5115435;28;20075;-72
2021/08/20 05:23:08;;;;;;;7.30;4.03;;;;;;;18.45;73.51;100260.16;5114840;28;20097;-72
2021/08/20 05:25:37;;;;;;;7.75;4.00;;;;;;;18.45;72.93;100254.78;5115037;28;20044;-71
2021/08/20 05:28:09;;;;;;;8.30;4.32;;;;;;;18.44;73.48;100269.28;5114721;28;20036;-72
2021/08/20 05:30:37;;;;;;;7.90;4.47;;;;;;;18.45;73.81;100269.13;5114995;28;20063;-72
2021/08/20 05:33:05;;;;;;;7.43;4.50;;;;;;;18.60;72.10;100272.22;5114887;28;20071;-72
2021/08/20 05:35:34;;;;;;;7.47;4.50;;;;;;;18.58;72.93;100266.13;5115022;28;20127;-72
2021/08/20 05:38:02;;;;;;;9.18;4.10;;;;;;;18.63;72.64;100273.81;5114697;28;20040;-78
2021/08/20 05:40:31;;;;;;;8.43;4.35;;;;;;;18.68;72.34;100277.81;5114633;28;20055;-71
2021/08/20 05:42:59;;;;;;;7.35;4.28;;;;;;;18.76;71.45;100269.84;5114594;28;20048;-71
2021/08/20 05:45:29;;;;;;;7.95;4.60;;;;;;;18.77;70.82;100276.09;5114274;28;20050;-71
2021/08/20 05:47:57;;;;;;;6.18;3.75;;;;;;;18.77;70.16;100279.66;5096118;28;20052;-71
2021/08/20 05:50:25;;;;;;;8.30;4.05;;;;;;;18.84;69.76;100283.47;5114380;28;20047;-72
2021/08/20 05:52:53;;;;;;;7.35;4.30;;;;;;;18.92;70.29;100290.03;5114446;28;20135;-72
2021/08/20 05:55:24;;;;;;;6.55;3.47;;;;;;;19.11;68.72;100284.59;5114001;28;20036;-74
2021/08/20 05:57:53;;;;;;;5.90;3.60;;;;;;;19.12;68.15;100275.47;5114509;28;20101;-80
2021/08/20 06:00:21;;;;;;;6.32;3.58;;;;;;;19.20;67.78;100283.66;5114069;28;20048;-74
2021/08/20 06:02:51;;;;;;;7.32;4.03;;;;;;;19.19;67.60;100291.94;5114090;28;20043;-73
2021/08/20 06:05:20;;;;;;;9.02;3.80;;;;;;;19.24;67.92;100287.81;5114134;28;20114;-74
2021/08/20 06:07:48;;;;;;;6.50;3.95;;;;;;;19.28;67.40;100286.50;5114102;28;20148;-74
2021/08/20 06:10:17;;;;;;;9.52;3.65;;;;;;;19.39;67.01;100305.25;5113680;28;20040;-74
2021/08/20 06:12:45;;;;;;;8.82;4.07;;;;;;;19.51;65.79;100305.09;5114251;28;20085;-74
2021/08/20 06:15:15;;;;;;;9.68;4.05;;;;;;;19.46;66.83;100300.09;5113845;28;20046;-74
2021/08/20 06:17:43;;;;;;;7.80;4.03;;;;;;;19.53;66.75;100305.78;5114338;28;20035;-75
2021/08/20 06:20:14;;;;;;;9.93;4.03;;;;;;;19.60;65.33;100307.78;5114013;28;20071;-75
2021/08/20 06:22:42;;;;;;;6.72;3.97;;;;;;;19.75;64.42;100300.00;5114211;28;20135;-74
2021/08/20 06:25:11;;;;;;;6.70;3.60;;;;;;;19.86;64.19;100299.81;5114753;28;20043;-75
2021/08/20 06:27:40;;;;;;;6.60;3.63;;;;;;;20.02;63.90;100297.31;5113879;28;20143;-75
2021/08/20 06:30:08;;;;;;;6.47;3.80;;;;;;;20.19;62.88;100297.50;5096131;28;20054;-75
2021/08/20 06:32:37;;;;;;;9.75;3.70;;;;;;;20.37;62.98;100306.50;5113961;28;20067;-78
2021/08/20 06:35:06;;;;;;;6.60;4.18;;;;;;;20.28;62.90;100302.00;5113596;28;20071;-74
2021/08/20 06:37:36;;;;;;;7.22;3.67;;;;;;;20.42;63.19;100308.72;5113350;28;20386;-74
2021/08/20 06:40:05;;;;;;;6.63;4.15;;;;;;;20.52;62.34;100310.38;5113618;28;20054;-74
2021/08/20 06:42:33;;;;;;;8.10;3.90;;;;;;;20.57;62.66;100302.66;5113336;28;20501;-74
2021/08/20 06:45:01;;;;;;;8.65;3.90;;;;;;;20.81;61.86;100303.84;5113968;28;20389;-75
2021/08/20 06:47:30;;;;;;;9.68;4.20;;;;;;;20.96;61.84;100302.28;5095481;28;20471;-79
2021/08/20 06:49:58;;;;;;;7.10;3.88;;;;;;;21.13;60.45;100308.66;5113741;28;20036;-73
2021/08/20 06:52:26;;;;;;;8.13;3.50;;;;;;;21.28;60.10;100312.53;5113514;28;20050;-74
2021/08/20 06:54:59;;;;;;;6.10;3.15;;;;;;;21.38;60.03;100307.00;5113233;28;20096;-73
2021/08/20 06:57:27;;;;;;;7.68;3.58;;;;;;;21.56;59.24;100305.09;5113720;28;20118;-73
2021/08/20 06:59:56;;;;;;;8.63;4.40;;;;;;;21.81;57.30;100308.78;5113214;28;20040;-71
2021/08/20 07:02:25;;;;;;;9.75;3.28;;;;;;;21.98;56.59;100304.22;5113189;28;20040;-75
2021/08/20 07:04:53;;;;;;;6.95;3.47;;;;;;;21.97;56.48;100306.09;5112486;28;20040;-76
2021/08/20 07:07:22;;;;;;;6.32;3.65;;;;;;;21.79;57.01;100304.50;5095321;28;20051;-74
2021/08/20 07:09:50;;;;;;;9.77;4.13;;;;;;;21.82;57.48;100310.47;5113051;28;20050;-74
2021/08/20 07:12:19;;;;;;;10.50;4.15;;;;;;;22.06;56.97;100311.56;5113119;28;20044;-75
2021/08/20 07:14:47;;;;;;;8.07;3.97;;;;;;;22.10;57.38;100302.97;5113182;28;20075;-75
2021/08/20 07:17:16;;;;;;;7.20;3.60;;;;;;;22.27;57.16;100301.97;5095033;28;20126;-74
2021/08/20 07:19:44;;;;;;;8.00;3.80;;;;;;;22.34;56.96;100304.03;5112860;28;20365;-75
2021/08/20 07:22:14;;;;;;;9.10;3.55;;;;;;;22.54;56.91;100310.84;5113385;28;20082;-77
2021/08/20 07:24:42;;;;;;;6.85;3.40;;;;;;;22.64;56.29;100308.81;5112999;28;20417;-78
2021/08/20 07:27:13;;;;;;;6.53;3.67;;;;;;;22.86;55.00;100310.06;5113356;28;20400;-70
2021/08/20 07:29:43;;;;;;;8.60;3.42;;;;;;;22.88;54.98;100307.19;5094538;28;20462;-70
2021/08/20 07:32:11;;;;;;;6.95;3.45;;;;;;;22.98;54.26;100302.41;5113415;28;20403;-70
2021/08/20 07:34:39;;;;;;;8.35;3.88;;;;;;;23.10;53.89;100301.03;5112779;28;20053;-70
2021/08/20 07:37:08;;;;;;;7.30;3.65;;;;;;;23.03;54.10;100302.75;5113176;28;20395;-70
2021/08/20 07:39:37;;;;;;;7.68;4.00;;;;;;;23.11;54.40;100305.47;5112820;28;20138;-75
2021/08/20 07:42:06;;;;;;;8.00;4.03;;;;;;;23.17;54.51;100296.63;5112851;28;20047;-70
2021/08/20 07:44:34;;;;;;;9.07;4.00;;;;;;;23.47;52.74;100302.34;5113208;28;20047;-77
2021/08/20 07:47:04;;;;;;;7.55;3.88;;;;;;;23.56;51.91;100298.56;5112825;28;20047;-76
2021/08/20 07:49:33;;;;;;;8.38;3.92;;;;;;;23.70;50.76;100303.31;5113089;28;20444;-72
2021/08/20 07:52:02;;;;;;;8.05;4.07;;;;;;;23.62;51.14;100301.44;5112905;28;20491;-79
2021/08/20 07:54:31;;;;;;;6.32;3.90;;;;;;;23.46;52.46;100314.25;5112762;28;20048;-72
2021/08/20 07:56:59;;;;;;;7.63;3.40;;;;;;;23.49;52.87;100311.16;5112712;28;20040;-74
2021/08/20 07:59:27;;;;;;;6.63;3.80;;;;;;;23.65;53.28;100312.00;5117988;28;20066;-76
2021/08/20 08:01:56;;;;;;;8.00;3.55;;;;;;;23.91;51.81;100313.59;5112511;28;20127;-77
2021/08/20 08:04:26;;;;;;;5.55;3.53;;;;;;;23.97;50.63;100311.03;5112857;28;20114;-75
2021/08/20 08:06:54;;;;;;;6.70;3.17;;;;;;;23.97;50.42;100321.91;5112850;28;20081;-74
2021/08/20 08:09:22;;;;;;;5.85;3.47;;;;;;;24.11;48.85;100322.19;5112860;28;20045;-75
2021/08/20 08:11:50;;;;;;;7.28;3.28;;;;;;;24.26;48.90;100320.41;5112343;28;20039;-73
2021/08/20 08:14:21;;;;;;;7.82;3.88;;;;;;;24.35;49.21;100322.09;5112789;28;20044;-73
2021/08/20 08:16:49;;;;;;;8.68;3.40;;;;;;;24.77;47.26;100328.94;5113526;28;20051;-74
2021/08/20 08:19:19;;;;;;;6.53;3.13;;;;;;;24.75;46.91;100326.41;5116658;28;20096;-73
2021/08/20 08:21:49;;;;;;;7.80;3.42;;;;;;;24.71;46.94;100324.25;5115962;28;20039;-73
2021/08/20 08:24:17;;;;;;;6.47;3.35;;;;;;;24.72;46.63;100320.50;5116524;28;20043;-72
2021/08/20 08:26:47;;;;;;;5.88;3.00;;;;;;;24.62;46.48;100319.88;5116123;28;20472;-74
2021/08/20 08:29:15;;;;;;;6.05;3.13;;;;;;;24.70;46.40;100317.06;5116151;28;20115;-75
2021/08/20 08:31:44;;;;;;;5.55;3.40;;;;;;;24.61;46.45;100318.16;5115920;28;20043;-75
2021/08/20 08:34:13;;;;;;;6.18;3.00;;;;;;;24.53;46.58;100316.38;5116188;28;20488;-74
2021/08/20 08:36:41;;;;;;;5.20;3.00;;;;;;;24.53;46.44;100313.63;5097818;28;20043;-77
2021/08/20 08:39:11;;;;;;;5.70;3.28;;;;;;;24.45;47.18;100317.25;5115879;28;20504;-74
2021/08/20 08:41:39;;;;;;;7.13;3.33;;;;;;;24.43;46.86;100315.75;5116011;28;20092;-73
2021/08/20 08:44:07;;;;;;;6.00;3.38;;;;;;;24.25;47.90;100307.81;5115766;28;20093;-69
2021/08/20 08:46:37;;;;;;;5.88;3.40;;;;;;;24.38;48.46;100307.25;5115765;28;20036;-69
2021/08/20 08:49:07;;;;;;;5.95;3.45;;;;;;;24.35;48.86;100313.06;5115714;28;20044;-73
2021/08/20 08:51:36;;;;;;;5.95;3.10;;;;;;;24.43;47.50;100313.03;5115881;28;20100;-72
2021/08/20 08:54:04;;;;;;;5.45;3.10;;;;;;;24.66;46.43;100315.75;5115393;28;20045;-73
2021/08/20 08:56:33;;;;;;;8.75;2.92;;;;;;;24.83;45.80;100317.31;5115570;28;20472;-73
2021/08/20 08:59:02;;;;;;;5.88;3.15;;;;;;;25.00;45.99;100313.44;5115291;28;20043;-73
2021/08/20 09:01:31;;;;;;;7.22;3.17;;;;;;;25.13;45.21;100320.16;5115430;28;20038;-74
2021/08/20 09:04:11;;;;;;;6.57;2.95;;;;;;;25.10;44.64;100319.50;5115450;28;20397;-75
2021/08/20 09:06:41;;;;;;;5.35;3.10;;;;;;;24.89;45.05;100313.00;5115515;28;20051;-72
2021/08/20 09:09:11;;;;;;;7.30;3.15;;;;;;;24.78;45.72;100317.00;5115154;28;20040;-73
2021/08/20 09:11:41;;;;;;;8.80;2.97;;;;;;;24.68;45.83;100313.69;5115294;28;20492;-72
2021/08/20 09:14:10;;;;;;;6.78;2.70;;;;;;;24.64;44.91;100315.94;5115304;28;20044;-73
2021/08/20 09:16:41;;;;;;;4.82;2.60;;;;;;;24.67;44.35;100314.72;5097384;28;20080;-73
2021/08/20 09:19:12;;;;;;;4.30;2.40;;;;;;;24.79;42.93;100316.81;5115288;28;20104;-74
2021/08/20 09:21:41;;;;;;;7.55;2.80;;;;;;;24.84;44.06;100314.41;5115474;28;20035;-78
2021/08/20 09:24:39;;;;;;;5.55;2.70;;;;;;;24.77;44.39;100309.84;5115037;28;20131;-74
2021/08/20 09:27:25;;;;;;;5.10;2.80;;;;;;;24.82;44.50;100308.28;5114861;28;20434;-70
2021/08/20 09:30:01;;;;;;;5.47;3.15;;;;;;;24.74;44.83;100308.34;5114021;28;20078;-72
2021/08/20 09:32:30;;;;;;;7.43;3.15;;;;;;;24.73;44.90;100305.81;5115211;28;20044;-74
2021/08/20 09:34:58;;;;;;;6.57;3.45;;;;;;;24.75;45.13;100301.03;5114620;28;20047;-76
2021/08/20 09:37:28;;;;;;;6.43;3.00;;;;;;;24.60;45.14;100305.56;5114880;28;20396;-71
2021/08/20 09:40:04;;;;;;;5.95;3.22;;;;;;;24.64;45.15;100304.19;5114561;28;20477;-72
2021/08/20 09:42:34;;;;;;;5.28;2.75;;;;;;;24.68;45.43;100302.78;5114999;28;20039;-76
2021/08/20 09:45:19;;;;;;;5.53;2.92;;;;;;;24.83;45.27;100293.63;5114209;28;20133;-76
2021/08/20 09:47:49;;;;;;;4.97;2.97;;;;;;;24.89;45.43;100297.47;5114241;28;20047;-75
2021/08/20 09:50:19;;;;;;;7.53;3.10;;;;;;;24.96;45.07;100292.13;5114638;28;20064;-76
2021/08/20 09:52:48;;;;;;;5.55;2.80;;;;;;;25.04;44.24;100295.69;5114312;28;20044;-78
2021/08/20 09:55:36;;;;;;;5.75;3.05;;;;;;;25.03;44.00;100285.81;5114387;28;20036;-69
2021/08/20 09:58:10;;;;;;;5.93;2.78;;;;;;;25.09;44.51;100286.91;5114344;28;20107;-70
2021/08/20 10:00:38;;;;;;;5.57;2.85;;;;;;;25.16;44.88;100279.69;5114609;28;20117;-74
2021/08/20 10:03:08;;;;;;;6.10;2.92;;;;;;;25.23;44.24;100279.81;5114014;28;20050;-71
2021/08/20 10:05:39;;;;;;;6.80;3.38;;;;;;;25.31;43.83;100277.00;5114442;28;20488;-73
2021/08/20 10:08:10;;;;;;;6.38;3.20;;;;;;;25.36;43.80;100267.19;5095694;28;20105;-77
2021/08/20 10:10:45;;;;;;;4.82;2.90;;;;;;;25.40;43.11;100271.25;5114088;28;20044;-75
2021/08/20 10:13:16;;;;;;;6.88;2.88;;;;;;;25.51;43.06;100261.75;5114453;28;20122;-78
2021/08/20 10:15:45;;;;;;;6.60;2.80;;;;;;;25.72;41.70;100268.34;5114224;28;20051;-77
2021/08/20 10:18:15;;;;;;;8.40;3.30;;;;;;;25.78;42.92;100262.16;5113985;28;20061;-76
2021/08/20 10:20:44;;;;;;;5.30;3.05;;;;;;;25.68;42.35;100265.97;5114240;28;20047;-76
2021/08/20 10:23:15;;;;;;;5.40;3.00;;;;;;;25.78;42.73;100267.59;5114115;28;20040;-78
2021/08/20 10:25:44;;;;;;;7.18;2.88;;;;;;;25.85;42.32;100263.91;5113995;28;20058;-77
2021/08/20 10:28:15;;;;;;;5.25;2.90;;;;;;;26.01;41.49;100264.72;5114151;28;20047;-78
2021/08/20 10:30:45;;;;;;;5.85;3.40;;;;;;;26.04;42.09;100254.25;5114010;28;20127;-77
2021/08/20 10:33:14;;;;;;;6.72;3.35;;;;;;;25.96;41.69;100254.34;5113757;28;20050;-80
2021/08/20 10:35:53;;;;;;;8.52;3.28;;;;;;;26.06;42.08;100260.38;5114039;28;20039;-77
2021/08/20 10:38:26;;;;;;;6.28;3.20;;;;;;;26.09;40.77;100251.78;5113508;28;20040;-80
2021/08/20 10:41:11;;;;;;;6.70;3.17;;;;;;;26.11;39.87;100254.31;5112657;28;20105;-78
2021/08/20 10:43:59;;;;;;;6.20;3.33;;;;;;;26.04;40.50;100256.97;5113926;28;20536;-78
2021/08/20 10:47:07;;;;;;;9.30;3.60;;;;;;;26.09;41.16;100246.31;5113934;28;20099;-78
2021/08/20 10:49:44;;;;;;;5.60;3.00;;;;;;;26.20;40.86;100242.25;5113490;28;20067;-77
2021/08/20 10:52:33;;;;;;;5.57;3.00;;;;;;;25.86;41.66;100248.34;5095242;28;20070;-76
2021/08/20 10:55:10;;;;;;;5.63;2.83;;;;;;;26.00;41.61;100235.72;5113433;28;20044;-78
2021/08/20 10:58:12;;;;;;;4.55;2.83;;;;;;;26.16;41.38;100243.69;5113615;28;20043;-76
2021/08/20 11:00:55;;;;;;;4.65;2.85;;;;;;;26.46;40.36;100244.44;5113714;28;20047;-76
2021/08/20 11:03:45;;;;;;;5.10;3.10;;;;;;;26.68;39.63;100237.06;5113824;28;20067;-76
2021/08/20 11:06:48;;;;;;;4.50;2.95;;;;;;;26.35;39.54;100236.72;5113060;28;20094;-75
2021/08/20 11:09:33;;;;;;;7.10;2.85;;;;;;;26.48;39.63;100236.88;5113389;28;20043;-76
2021/08/20 11:12:02;;;;;;;5.65;2.85;;;;;;;26.49;39.70;100244.03;5113054;28;20075;-75
2021/08/20 11:14:37;;;;;;;4.53;2.70;;;;;;;26.58;39.67;100245.59;5113291;28;20468;-78
2021/08/20 11:17:10;;;;;;;6.68;3.50;;;;;;;26.61;39.59;100234.25;5117182;28;20388;-78
2021/08/20 11:20:00;;;;;;;5.28;2.95;;;;;;;26.63;39.71;100239.53;5105738;28;20044;-79
2021/08/20 11:22:31;;;;;;;6.45;2.90;;;;;;;26.61;38.90;100239.72;5089093;28;20067;-79
2021/08/20 11:25:24;;;;;;;5.68;3.33;;;;;;;26.63;38.52;100229.44;5093563;28;20048;-79
2021/08/20 11:28:07;;;;;;;5.63;3.08;;;;;;;26.61;38.98;100242.47;5092643;28;20055;-77
2021/08/20 11:30:38;;;;;;;6.07;2.63;;;;;;;26.59;39.13;100233.63;5093222;28;20086;-77
2021/08/20 11:33:13;;;;;;;6.10;3.17;;;;;;;26.52;39.05;100244.47;5093392;28;20052;-77
2021/08/20 11:35:41;;;;;;;5.38;2.92;;;;;;;26.43;39.10;100245.66;5098903;28;20511;-77
2021/08/20 11:38:10;;;;;;;6.25;3.00;;;;;;;26.39;39.30;100240.78;5095695;28;20047;-77